Time;durP1;ratioP1;P1;durP2;ratioP2;P2;SDS_P1;SDS_P2;PMS_P1;PMS_P2;Temp;Humidity;BMP_temperature;BMP_pressure;BME280_temperature;BME280_humidity;BME280_pressure;Samples;Min_cycle;Max_cycle;Signal;HPM_P1;HPM_P2
2021/09/17 00:00:33;;;;;;;2.70;2.50;;;24.70;37.90;;;;;;5041772;28;20473;-24
2021/09/17 00:03:05;;;;;;;3.60;2.80;;;24.80;38.00;;;;;;5043042;28;20540;-24
2021/09/17 00:05:39;;;;;;;2.40;2.30;;;24.80;39.20;;;;;;5038641;28;20457;-23
2021/09/17 00:08:11;;;;;;;2.50;2.30;;;24.80;37.70;;;;;;5043160;28;20461;-23
2021/09/17 00:10:42;;;;;;;2.43;2.10;;;24.80;38.50;;;;;;5044245;28;20450;-24
2021/09/17 00:13:13;;;;;;;2.43;2.23;;;24.80;38.90;;;;;;5042898;28;20477;-24
2021/09/17 00:15:44;;;;;;;2.70;2.47;;;24.70;38.20;;;;;;5043731;28;20505;-23
2021/09/17 00:18:16;;;;;;;3.63;2.47;;;24.60;38.30;;;;;;5043695;28;20473;-23
2021/09/17 00:20:49;;;;;;;2.63;2.10;;;24.60;39.30;;;;;;5045155;28;20442;-23
2021/09/17 00:23:20;;;;;;;4.27;2.40;;;24.50;39.00;;;;;;5043214;28;20522;-23
2021/09/17 00:25:51;;;;;;;2.50;2.10;;;24.40;38.00;;;;;;5042152;28;20526;-23
2021/09/17 00:28:23;;;;;;;2.63;2.43;;;24.30;37.30;;;;;;5040330;28;20533;-23
2021/09/17 00:30:54;;;;;;;4.30;2.67;;;24.20;40.20;;;;;;5043361;28;20520;-24
2021/09/17 00:33:25;;;;;;;4.23;2.33;;;24.20;39.30;;;;;;5044354;28;20448;-23
2021/09/17 00:35:58;;;;;;;2.50;2.30;;;24.30;37.30;;;;;;5041492;28;20539;-24
2021/09/17 00:38:30;;;;;;;2.00;1.80;;;24.30;38.00;;;;;;5039476;28;20529;-24
2021/09/17 00:41:01;;;;;;;2.70;2.40;;;24.30;39.60;;;;;;5044111;28;20531;-24
2021/09/17 00:43:32;;;;;;;2.37;2.03;;;24.30;39.00;;;;;;5044283;28;20465;-24
2021/09/17 00:46:04;;;;;;;4.63;2.50;;;24.20;40.30;;;;;;5040177;28;20480;-24
2021/09/17 00:48:35;;;;;;;3.10;1.87;;;24.20;37.50;;;;;;5042264;28;20500;-24
2021/09/17 00:51:08;;;;;;;2.83;2.63;;;24.10;39.30;;;;;;5043531;28;20746;-23
2021/09/17 00:53:40;;;;;;;3.00;2.20;;;24.00;40.50;;;;;;5043752;28;20453;-24
2021/09/17 00:56:11;;;;;;;2.37;2.17;;;23.80;37.60;;;;;;5042350;28;20488;-24
2021/09/17 00:58:42;;;;;;;2.70;2.07;;;23.70;38.90;;;;;;5042196;28;20460;-24
2021/09/17 01:01:13;;;;;;;2.63;2.20;;;23.60;38.50;;;;;;5040918;28;20441;-24
2021/09/17 01:03:45;;;;;;;3.23;2.07;;;23.60;40.10;;;;;;5044019;28;20493;-24
2021/09/17 01:06:19;;;;;;;1.67;1.57;;;23.50;41.10;;;;;;5043216;28;20897;-23
2021/09/17 01:08:50;;;;;;;2.13;1.83;;;23.40;39.90;;;;;;5031779;28;20515;-25
2021/09/17 01:11:22;;;;;;;2.00;1.90;;;23.20;39.40;;;;;;5043147;28;20461;-24
2021/09/17 01:13:53;;;;;;;1.80;1.67;;;23.20;38.20;;;;;;5043636;28;20517;-23
2021/09/17 01:16:25;;;;;;;2.20;1.90;;;23.10;37.50;;;;;;5038979;28;20492;-23
2021/09/17 01:18:57;;;;;;;4.07;2.20;;;23.00;38.70;;;;;;5043658;28;20456;-23
2021/09/17 01:21:30;;;;;;;2.03;1.53;;;22.90;38.10;;;;;;5043204;28;20496;-24
2021/09/17 01:24:01;;;;;;;2.40;1.67;;;22.90;38.30;;;;;;5042292;28;20501;-23
2021/09/17 01:26:32;;;;;;;1.90;1.80;;;22.70;38.70;;;;;;5042076;28;20955;-24
2021/09/17 01:29:03;;;;;;;4.03;1.87;;;22.60;38.60;;;;;;5042695;28;20915;-23
2021/09/17 01:31:35;;;;;;;2.87;2.23;;;22.60;39.40;;;;;;5042262;28;20511;-24
2021/09/17 01:34:09;;;;;;;2.30;1.70;;;22.50;39.40;;;;;;5043230;28;20445;-24
2021/09/17 01:36:42;;;;;;;3.00;1.83;;;22.40;38.20;;;;;;5041782;28;20519;-23
2021/09/17 01:39:14;;;;;;;4.50;2.00;;;22.40;38.90;;;;;;5042547;28;20449;-24
2021/09/17 01:41:45;;;;;;;3.13;1.80;;;22.30;38.30;;;;;;5043071;28;20508;-23
2021/09/17 01:44:16;;;;;;;1.93;1.83;;;22.20;40.30;;;;;;5043153;28;20424;-23
2021/09/17 01:46:48;;;;;;;2.47;1.80;;;22.10;39.70;;;;;;5041590;28;20445;-23
2021/09/17 01:49:19;;;;;;;4.47;1.90;;;21.90;39.10;;;;;;5043386;28;20792;-25
2021/09/17 01:51:53;;;;;;;2.60;1.63;;;21.90;40.40;;;;;;5042696;28;20464;-23
2021/09/17 01:54:24;;;;;;;5.50;2.23;;;21.80;39.80;;;;;;5042395;28;20571;-24
2021/09/17 01:56:56;;;;;;;2.80;1.83;;;21.70;39.10;;;;;;5041620;28;20463;-24
2021/09/17 01:59:27;;;;;;;3.67;1.40;;;21.70;40.20;;;;;;5042958;28;20468;-24
2021/09/17 02:01:58;;;;;;;2.00;1.67;;;21.60;39.40;;;;;;5041796;28;20491;-25
2021/09/17 02:04:31;;;;;;;1.73;1.60;;;21.50;39.20;;;;;;5042672;28;20501;-24
2021/09/17 02:07:04;;;;;;;2.43;2.27;;;21.50;40.00;;;;;;5041556;28;20454;-23
2021/09/17 02:09:35;;;;;;;2.90;2.00;;;21.30;41.00;;;;;;5042694;28;20473;-23
2021/09/17 02:12:07;;;;;;;2.43;1.80;;;21.30;39.80;;;;;;5041684;28;20464;-23
2021/09/17 02:14:40;;;;;;;2.47;2.00;;;21.20;41.30;;;;;;5042534;28;20450;-23
2021/09/17 02:17:11;;;;;;;4.13;2.37;;;21.20;41.20;;;;;;5041049;28;20488;-24
2021/09/17 02:19:42;;;;;;;3.03;2.30;;;21.10;40.60;;;;;;5043112;28;20431;-23
2021/09/17 02:22:15;;;;;;;2.00;1.90;;;20.90;41.30;;;;;;5042647;28;20435;-23
2021/09/17 02:24:47;;;;;;;3.03;2.00;;;20.90;39.90;;;;;;5042485;28;20453;-23
2021/09/17 02:27:18;;;;;;;2.50;1.83;;;20.90;41.20;;;;;;5041615;28;20534;-23
2021/09/17 02:29:50;;;;;;;2.10;1.57;;;20.80;40.50;;;;;;5042249;28;20432;-24
2021/09/17 02:32:21;;;;;;;4.40;2.17;;;20.70;41.10;;;;;;5039015;28;20416;-23
2021/09/17 02:34:52;;;;;;;2.83;2.40;;;20.60;41.60;;;;;;5043004;28;20422;-23
2021/09/17 02:37:25;;;;;;;2.50;1.80;;;20.50;41.80;;;;;;5045504;28;20869;-24
2021/09/17 02:39:57;;;;;;;2.40;2.17;;;20.50;41.50;;;;;;5035510;28;20477;-23
2021/09/17 02:42:28;;;;;;;3.00;2.70;;;20.50;42.20;;;;;;5046339;28;20432;-24
2021/09/17 02:44:59;;;;;;;2.10;1.90;;;20.40;43.40;;;;;;5046192;28;20476;-23
2021/09/17 02:47:31;;;;;;;2.20;1.90;;;20.20;43.40;;;;;;5044853;28;20493;-23
2021/09/17 02:50:02;;;;;;;2.50;2.30;;;20.30;41.80;;;;;;5046923;28;20416;-24
2021/09/17 02:52:35;;;;;;;3.10;1.90;;;20.20;42.60;;;;;;5046189;28;20929;-24
2021/09/17 02:55:09;;;;;;;2.10;2.00;;;20.10;44.00;;;;;;5046019;28;20471;-24
2021/09/17 02:57:41;;;;;;;3.80;3.00;;;20.00;44.50;;;;;;5045140;28;20492;-25
2021/09/17 03:00:13;;;;;;;2.83;1.90;;;19.90;44.60;;;;;;5036835;28;20819;-24
2021/09/17 03:02:47;;;;;;;4.87;2.40;;;19.80;44.20;;;;;;5044447;28;20420;-25
2021/09/17 03:05:20;;;;;;;2.60;2.00;;;19.80;44.50;;;;;;5046162;28;20416;-24
2021/09/17 03:07:52;;;;;;;5.43;3.10;;;19.70;44.10;;;;;;5045394;28;20428;-24
2021/09/17 03:10:24;;;;;;;4.23;2.80;;;19.60;44.50;;;;;;5045659;28;20506;-24
2021/09/17 03:12:55;;;;;;;3.97;2.90;;;19.60;44.20;;;;;;5045571;28;20445;-24
2021/09/17 03:15:26;;;;;;;2.50;2.30;;;19.50;44.90;;;;;;5046005;28;20556;-25
2021/09/17 03:17:58;;;;;;;5.13;2.50;;;19.40;46.10;;;;;;5044646;28;20538;-24
2021/09/17 03:20:29;;;;;;;2.67;2.47;;;19.30;47.10;;;;;;5046137;28;20929;-23
2021/09/17 03:23:02;;;;;;;2.70;2.50;;;19.20;47.20;;;;;;5045119;28;20461;-25
2021/09/17 03:25:33;;;;;;;2.70;2.30;;;19.20;46.20;;;;;;5045463;28;20863;-24
2021/09/17 03:28:05;;;;;;;3.23;2.10;;;19.10;46.50;;;;;;5044574;28;20485;-24
2021/09/17 03:30:36;;;;;;;3.70;2.83;;;19.00;45.70;;;;;;5045587;28;20468;-25
2021/09/17 03:33:09;;;;;;;2.90;2.63;;;19.00;46.30;;;;;;5044629;28;20424;-25
2021/09/17 03:35:41;;;;;;;3.83;3.10;;;19.00;48.00;;;;;;5044991;28;20427;-25
2021/09/17 03:38:14;;;;;;;4.10;3.20;;;18.90;46.30;;;;;;5043508;28;20480;-25
2021/09/17 03:40:47;;;;;;;6.80;3.67;;;18.90;46.30;;;;;;5045050;28;20595;-25
2021/09/17 03:43:18;;;;;;;3.47;3.17;;;18.80;47.80;;;;;;5044748;28;20449;-24
2021/09/17 03:45:50;;;;;;;3.47;2.43;;;18.70;47.00;;;;;;5038800;28;20457;-24
2021/09/17 03:48:21;;;;;;;2.40;2.20;;;18.60;47.00;;;;;;5043902;28;20474;-25
2021/09/17 03:50:52;;;;;;;3.30;3.00;;;18.70;46.50;;;;;;5045881;28;20517;-25
2021/09/17 03:53:25;;;;;;;3.43;2.23;;;18.70;48.00;;;;;;5045507;28;20470;-24
2021/09/17 03:55:56;;;;;;;2.83;2.60;;;18.60;47.60;;;;;;5041410;28;20461;-25
2021/09/17 03:58:28;;;;;;;4.00;3.20;;;18.60;47.00;;;;;;5040916;28;20500;-24
2021/09/17 04:00:59;;;;;;;3.77;2.67;;;18.50;48.00;;;;;;5044453;28;20478;-25
2021/09/17 04:03:31;;;;;;;2.77;2.40;;;18.50;47.80;;;;;;5045313;28;20485;-26
2021/09/17 04:06:02;;;;;;;5.63;3.27;;;18.40;48.80;;;;;;5045301;28;20445;-25
2021/09/17 04:08:35;;;;;;;3.10;2.90;;;18.40;48.00;;;;;;5041877;28;20455;-24
2021/09/17 04:11:06;;;;;;;2.97;2.73;;;18.30;48.50;;;;;;5043030;28;20621;-24
2021/09/17 04:13:37;;;;;;;3.10;2.70;;;18.20;49.60;;;;;;5044195;28;20480;-24
2021/09/17 04:16:09;;;;;;;3.67;3.33;;;18.10;49.10;;;;;;5042070;28;20431;-25
2021/09/17 04:18:40;;;;;;;3.37;3.17;;;18.00;47.70;;;;;;5044569;28;20591;-24
2021/09/17 04:21:11;;;;;;;2.77;1.70;;;18.10;48.00;;;;;;5044709;28;20450;-24
2021/09/17 04:23:44;;;;;;;2.63;2.30;;;18.10;45.60;;;;;;5044193;28;20473;-24
2021/09/17 04:26:16;;;;;;;4.70;2.63;;;18.20;47.50;;;;;;5043623;28;20445;-24
2021/09/17 04:28:47;;;;;;;3.23;2.70;;;18.20;47.10;;;;;;5043495;28;20535;-25
2021/09/17 04:31:18;;;;;;;7.10;4.87;;;18.10;47.40;;;;;;5043501;28;21032;-24
2021/09/17 04:33:50;;;;;;;5.73;5.23;;;18.00;47.10;;;;;;5044066;28;20420;-24
2021/09/17 04:36:21;;;;;;;6.03;4.33;;;17.90;48.00;;;;;;5044062;28;20457;-24
2021/09/17 04:38:54;;;;;;;3.20;1.90;;;17.80;48.10;;;;;;5044191;28;20509;-25
2021/09/17 04:41:25;;;;;;;2.50;2.10;;;17.90;45.90;;;;;;5043612;28;20500;-24
2021/09/17 04:43:56;;;;;;;2.40;1.60;;;17.90;46.50;;;;;;5043733;28;20449;-24
2021/09/17 04:46:28;;;;;;;3.33;1.63;;;18.00;46.20;;;;;;5029198;28;20445;-25
2021/09/17 04:48:59;;;;;;;3.23;2.70;;;18.00;45.90;;;;;;5043578;28;20479;-24
2021/09/17 04:51:31;;;;;;;2.30;2.20;;;18.00;46.60;;;;;;5037971;28;20460;-24
2021/09/17 04:54:04;;;;;;;1.90;1.70;;;17.90;45.90;;;;;;5043985;28;20513;-24
2021/09/17 04:56:36;;;;;;;2.73;2.00;;;17.90;45.90;;;;;;5042595;28;20579;-24
2021/09/17 04:59:08;;;;;;;2.37;2.17;;;17.90;47.20;;;;;;5043574;28;20548;-24
2021/09/17 05:01:39;;;;;;;2.77;2.50;;;17.70;48.40;;;;;;5041686;28;20454;-25
2021/09/17 05:04:11;;;;;;;2.13;2.03;;;17.60;49.20;;;;;;5043721;28;20486;-25
2021/09/17 05:06:42;;;;;;;4.20;2.50;;;17.50;49.50;;;;;;5043143;28;20453;-25
2021/09/17 05:09:15;;;;;;;3.20;2.20;;;17.30;50.80;;;;;;5039591;28;20489;-24
2021/09/17 05:11:46;;;;;;;1.87;1.73;;;17.20;49.80;;;;;;5035738;28;20514;-25
2021/09/17 05:14:17;;;;;;;3.10;2.10;;;17.00;52.00;;;;;;5043521;28;20454;-24
2021/09/17 05:16:49;;;;;;;1.93;1.80;;;16.90;52.60;;;;;;5042274;28;20874;-24
2021/09/17 05:19:23;;;;;;;4.00;1.97;;;16.70;52.30;;;;;;5043690;28;20512;-24
2021/09/17 05:21:54;;;;;;;2.20;1.50;;;16.60;51.60;;;;;;5042101;28;20457;-25
2021/09/17 05:24:27;;;;;;;2.00;1.73;;;16.50;52.40;;;;;;5040421;28;20492;-24
2021/09/17 05:26:58;;;;;;;1.57;1.47;;;16.30;53.20;;;;;;5041560;28;20481;-25
2021/09/17 05:29:29;;;;;;;2.00;1.50;;;16.20;55.30;;;;;;5042577;28;20478;-25
2021/09/17 05:32:01;;;;;;;2.43;1.77;;;16.20;55.50;;;;;;5026034;28;20532;-25
2021/09/17 05:34:32;;;;;;;4.70;2.17;;;16.00;54.80;;;;;;5042665;28;20507;-25
2021/09/17 05:37:03;;;;;;;2.73;2.30;;;15.90;56.70;;;;;;5041638;28;20553;-24
2021/09/17 05:39:36;;;;;;;4.10;1.70;;;15.80;57.00;;;;;;5041832;28;20455;-25
2021/09/17 05:42:08;;;;;;;2.30;2.10;;;15.70;55.80;;;;;;5026588;28;20454;-25
2021/09/17 05:44:39;;;;;;;3.13;2.07;;;15.60;56.20;;;;;;5042696;28;20508;-25
2021/09/17 05:47:11;;;;;;;1.80;1.70;;;15.60;57.80;;;;;;5041561;28;20445;-25
2021/09/17 05:49:42;;;;;;;2.00;1.80;;;15.50;57.60;;;;;;5042818;28;20450;-24
2021/09/17 05:52:13;;;;;;;2.10;1.90;;;15.40;57.90;;;;;;5042458;28;20472;-25
2021/09/17 05:54:46;;;;;;;1.90;1.63;;;15.30;58.30;;;;;;5042240;28;20453;-24
2021/09/17 05:57:18;;;;;;;2.73;1.90;;;15.20;57.80;;;;;;5040639;28;20863;-24
2021/09/17 05:59:49;;;;;;;3.37;2.37;;;15.30;56.50;;;;;;5042273;28;20512;-25
2021/09/17 06:02:20;;;;;;;2.07;1.87;;;15.20;58.00;;;;;;5040656;28;20476;-25
2021/09/17 06:04:52;;;;;;;2.60;2.07;;;15.20;59.30;;;;;;5042921;28;20527;-25
2021/09/17 06:07:23;;;;;;;5.13;1.70;;;15.10;56.90;;;;;;5042031;28;20622;-24
2021/09/17 06:09:56;;;;;;;3.23;2.23;;;15.20;56.10;;;;;;5042558;28;20464;-24
2021/09/17 06:12:27;;;;;;;2.47;2.13;;;15.20;56.80;;;;;;5041537;28;20457;-24
2021/09/17 06:14:59;;;;;;;3.23;2.10;;;15.20;56.60;;;;;;5042385;28;20452;-24
2021/09/17 06:17:30;;;;;;;3.40;2.00;;;15.20;58.10;;;;;;5035017;28;20520;-25
2021/09/17 06:20:02;;;;;;;3.17;1.80;;;15.20;57.20;;;;;;5042219;28;20532;-24
2021/09/17 06:22:33;;;;;;;2.10;1.90;;;15.20;58.70;;;;;;5042039;28;20933;-24
2021/09/17 06:25:07;;;;;;;4.23;2.00;;;15.20;57.80;;;;;;5041292;28;20528;-24
2021/09/17 06:27:38;;;;;;;2.10;2.00;;;15.30;58.10;;;;;;5041316;28;20457;-24
2021/09/17 06:30:10;;;;;;;6.77;2.20;;;15.20;56.50;;;;;;5041290;28;20517;-24
2021/09/17 06:32:41;;;;;;;3.77;2.00;;;15.20;58.20;;;;;;5041511;28;20488;-24
2021/09/17 06:35:13;;;;;;;1.77;1.67;;;15.10;59.00;;;;;;5042447;28;20453;-24
2021/09/17 06:37:49;;;;;;;2.23;2.10;;;15.10;57.20;;;;;;5041921;28;20450;-24
2021/09/17 06:40:24;;;;;;;2.63;1.90;;;15.10;58.20;;;;;;5041783;28;20488;-24
2021/09/17 06:42:55;;;;;;;1.90;1.80;;;15.10;55.80;;;;;;5028385;28;20905;-24
2021/09/17 06:45:27;;;;;;;2.90;1.70;;;15.10;56.50;;;;;;5041712;28;20462;-24
2021/09/17 06:47:59;;;;;;;2.30;2.10;;;15.20;53.60;;;;;;5041460;28;20503;-25
2021/09/17 06:50:31;;;;;;;4.63;2.50;;;15.30;54.10;;;;;;5042343;28;20548;-24
2021/09/17 06:53:02;;;;;;;3.53;2.33;;;15.40;53.00;;;;;;5041757;28;20544;-25
2021/09/17 06:55:36;;;;;;;3.27;1.80;;;15.50;54.40;;;;;;5041577;28;20445;-25
2021/09/17 06:58:08;;;;;;;1.97;1.87;;;15.30;55.80;;;;;;5040967;28;20445;-25
2021/09/17 07:00:40;;;;;;;4.23;2.40;;;15.20;55.80;;;;;;5041995;28;20492;-24
2021/09/17 07:03:13;;;;;;;2.30;2.20;;;15.20;55.20;;;;;;5041057;28;20548;-25
2021/09/17 07:05:44;;;;;;;3.80;2.53;;;15.20;55.80;;;;;;5041996;28;20922;-24
2021/09/17 07:08:16;;;;;;;2.90;2.47;;;15.00;56.50;;;;;;5037865;28;20453;-24
2021/09/17 07:10:50;;;;;;;4.50;2.80;;;14.90;58.00;;;;;;5041487;28;20454;-24
2021/09/17 07:13:21;;;;;;;2.57;2.30;;;14.90;57.20;;;;;;5041423;28;20489;-25
2021/09/17 07:15:53;;;;;;;3.07;2.60;;;14.80;57.50;;;;;;5026802;28;20897;-24
2021/09/17 07:18:24;;;;;;;2.90;2.50;;;14.80;58.00;;;;;;5041740;28;20446;-25
2021/09/17 07:20:57;;;;;;;6.03;2.70;;;14.70;59.20;;;;;;5041684;28;20523;-24
2021/09/17 07:23:28;;;;;;;3.33;2.70;;;14.70;57.50;;;;;;5042981;28;20460;-24
2021/09/17 07:26:01;;;;;;;3.50;2.43;;;14.60;58.50;;;;;;5044449;28;20523;-24
2021/09/17 07:28:33;;;;;;;4.67;2.67;;;14.60;58.60;;;;;;5044727;28;20453;-25
2021/09/17 07:31:05;;;;;;;3.60;2.70;;;14.80;55.00;;;;;;5044018;28;20453;-25
2021/09/17 07:33:36;;;;;;;3.20;2.33;;;14.90;55.40;;;;;;5045329;28;20452;-24
2021/09/17 07:36:08;;;;;;;2.77;2.30;;;15.00;55.90;;;;;;5044835;28;20445;-24
2021/09/17 07:38:39;;;;;;;3.97;3.23;;;15.00;56.30;;;;;;5044965;28;20769;-24
2021/09/17 07:41:12;;;;;;;4.03;3.63;;;14.90;56.40;;;;;;5044415;28;20572;-24
2021/09/17 07:43:43;;;;;;;3.23;2.93;;;14.90;55.10;;;;;;5045073;28;20454;-24
2021/09/17 07:46:14;;;;;;;3.07;2.50;;;15.00;55.20;;;;;;5043352;28;20460;-24
2021/09/17 07:48:45;;;;;;;2.67;2.43;;;15.00;55.70;;;;;;5044810;28;20453;-25
2021/09/17 07:51:17;;;;;;;6.37;3.00;;;15.10;54.10;;;;;;5044715;28;20488;-24
2021/09/17 07:53:48;;;;;;;7.50;3.13;;;15.30;54.50;;;;;;5045273;28;20489;-24
2021/09/17 07:56:21;;;;;;;3.17;2.40;;;15.20;54.80;;;;;;5044060;28;20925;-24
2021/09/17 07:58:52;;;;;;;3.80;2.47;;;15.30;53.70;;;;;;5044347;28;20450;-25
2021/09/17 08:01:24;;;;;;;4.43;2.70;;;15.30;55.20;;;;;;5043470;28;20489;-25
2021/09/17 08:03:56;;;;;;;5.00;2.83;;;15.30;55.30;;;;;;5044347;28;20469;-25
2021/09/17 08:06:27;;;;;;;3.27;2.60;;;15.20;55.40;;;;;;5039917;28;20471;-25
2021/09/17 08:08:58;;;;;;;3.13;2.50;;;15.20;55.50;;;;;;5044388;28;20468;-25
2021/09/17 08:11:31;;;;;;;3.43;2.73;;;15.10;55.90;;;;;;5044256;28;20457;-24
2021/09/17 08:14:03;;;;;;;3.37;2.43;;;15.00;56.90;;;;;;5043943;28;20457;-24
2021/09/17 08:16:34;;;;;;;3.27;2.40;;;14.90;57.30;;;;;;5043701;28;20454;-24
2021/09/17 08:19:06;;;;;;;3.83;2.50;;;15.00;56.50;;;;;;5045058;28;20455;-25
2021/09/17 08:21:41;;;;;;;3.40;2.63;;;15.00;56.80;;;;;;5044304;28;20532;-25
2021/09/17 08:24:16;;;;;;;3.17;2.70;;;15.00;56.30;;;;;;5043278;28;20475;-25
2021/09/17 08:26:56;;;;;;;3.80;2.20;;;15.10;55.50;;;;;;5043962;28;20574;-24
2021/09/17 08:29:27;;;;;;;4.20;2.53;;;15.10;56.50;;;;;;5037922;28;20457;-24
2021/09/17 08:31:59;;;;;;;3.13;2.73;;;15.20;55.70;;;;;;5042852;28;20492;-24
2021/09/17 08:34:30;;;;;;;4.17;2.10;;;15.10;56.40;;;;;;5043635;28;20450;-25
2021/09/17 08:37:03;;;;;;;3.60;2.30;;;15.10;56.60;;;;;;5043947;28;20454;-24
2021/09/17 08:39:36;;;;;;;2.93;2.73;;;15.10;56.00;;;;;;5044499;28;20457;-25
2021/09/17 08:42:10;;;;;;;3.53;2.40;;;15.10;55.80;;;;;;5043325;28;20489;-24
2021/09/17 08:44:41;;;;;;;2.93;2.40;;;15.10;57.40;;;;;;5043873;28;20548;-24
2021/09/17 08:47:16;;;;;;;2.80;2.50;;;15.00;56.00;;;;;;5042524;28;20456;-24
2021/09/17 08:49:48;;;;;;;3.57;2.40;;;15.00;57.50;;;;;;5043679;28;20491;-25
2021/09/17 08:52:19;;;;;;;2.77;2.27;;;15.00;56.80;;;;;;5043415;28;21071;-24
2021/09/17 08:54:51;;;;;;;3.43;2.33;;;14.90;57.80;;;;;;5044112;28;20453;-24
2021/09/17 08:57:24;;;;;;;2.50;2.30;;;14.90;57.70;;;;;;5043059;28;20477;-25
2021/09/17 08:59:55;;;;;;;2.33;2.13;;;14.90;58.30;;;;;;5043269;28;20535;-25
2021/09/17 09:02:28;;;;;;;2.83;2.23;;;14.80;58.40;;;;;;5041952;28;20525;-24
2021/09/17 09:05:02;;;;;;;3.23;2.23;;;14.80;58.90;;;;;;5042894;28;20484;-25
2021/09/17 09:07:36;;;;;;;2.23;2.03;;;14.80;57.90;;;;;;5041707;28;20464;-24
2021/09/17 09:10:09;;;;;;;5.33;2.70;;;14.70;59.90;;;;;;5042518;28;20476;-25
2021/09/17 09:12:44;;;;;;;2.13;2.00;;;14.70;60.00;;;;;;5042127;28;20464;-25
2021/09/17 09:15:17;;;;;;;2.60;2.40;;;14.70;60.10;;;;;;5043050;28;20448;-25
2021/09/17 09:17:50;;;;;;;2.87;2.13;;;14.60;61.40;;;;;;5027334;28;20460;-24
2021/09/17 09:20:29;;;;;;;3.67;2.23;;;14.60;62.50;;;;;;5042244;28;20454;-23
2021/09/17 09:23:18;;;;;;;2.93;2.63;;;14.50;59.80;;;;;;5043456;28;20920;-24
2021/09/17 09:26:01;;;;;;;2.07;1.87;;;14.50;61.10;;;;;;5042862;28;20469;-24
2021/09/17 09:28:35;;;;;;;2.60;2.40;;;14.50;59.50;;;;;;5033767;28;20453;-24
2021/09/17 09:31:08;;;;;;;3.27;2.17;;;14.40;61.10;;;;;;5041402;28;20554;-24
2021/09/17 09:33:41;;;;;;;5.53;2.37;;;14.40;59.90;;;;;;5042347;28;20492;-24
2021/09/17 09:36:14;;;;;;;3.07;2.20;;;14.40;60.20;;;;;;5042607;28;20489;-23
2021/09/17 09:38:47;;;;;;;6.00;2.13;;;14.40;60.70;;;;;;5042911;28;20501;-23
2021/09/17 09:41:20;;;;;;;2.30;2.10;;;14.30;63.70;;;;;;5041808;28;20485;-23
2021/09/17 09:43:55;;;;;;;3.10;2.80;;;14.30;63.90;;;;;;5043440;28;20538;-23
2021/09/17 09:46:31;;;;;;;4.17;3.10;;;14.20;67.30;;;;;;5040001;28;20518;-23
2021/09/17 09:49:14;;;;;;;3.03;2.67;;;14.10;68.20;;;;;;5042858;28;20488;-23
2021/09/17 09:51:58;;;;;;;4.43;2.50;;;14.10;66.80;;;;;;5041943;28;20489;-23
2021/09/17 09:54:30;;;;;;;4.73;2.50;;;14.00;70.40;;;;;;5042826;28;20473;-23
2021/09/17 09:57:04;;;;;;;3.57;2.90;;;13.90;70.40;;;;;;5041516;28;20557;-24
2021/09/17 09:59:37;;;;;;;3.00;2.80;;;13.90;71.30;;;;;;5037463;28;20461;-24
2021/09/17 10:02:09;;;;;;;3.10;2.30;;;14.00;72.40;;;;;;5041166;28;20512;-23
2021/09/17 10:04:44;;;;;;;2.90;2.50;;;13.90;73.00;;;;;;5042313;28;20481;-24
2021/09/17 10:07:22;;;;;;;4.90;3.00;;;14.00;74.20;;;;;;5041798;28;20457;-24
2021/09/17 10:09:53;;;;;;;2.30;2.10;;;13.90;74.60;;;;;;5040115;28;20464;-24
2021/09/17 10:12:25;;;;;;;3.23;2.67;;;13.90;73.70;;;;;;5041789;28;20468;-24
2021/09/17 10:14:59;;;;;;;2.97;2.60;;;13.90;74.50;;;;;;5042920;28;20477;-24
2021/09/17 10:17:32;;;;;;;4.03;2.40;;;13.90;76.10;;;;;;5041348;28;20440;-25
2021/09/17 10:20:07;;;;;;;4.10;2.70;;;13.90;75.70;;;;;;5042910;28;20532;-25
2021/09/17 10:22:39;;;;;;;3.20;2.97;;;13.90;77.00;;;;;;5041511;28;20490;-25
2021/09/17 10:25:16;;;;;;;4.30;2.57;;;13.90;77.40;;;;;;5042842;28;20460;-24
2021/09/17 10:27:49;;;;;;;2.63;2.43;;;13.90;78.00;;;;;;5041501;28;20551;-24
2021/09/17 10:30:30;;;;;;;4.20;2.33;;;13.80;76.80;;;;;;5041545;28;20515;-25
2021/09/17 10:33:01;;;;;;;3.10;2.90;;;13.80;77.70;;;;;;5041136;28;20763;-25
2021/09/17 10:35:44;;;;;;;4.00;2.93;;;13.80;75.30;;;;;;5043449;28;20472;-25
2021/09/17 10:38:21;;;;;;;3.73;2.73;;;13.70;76.20;;;;;;5038562;28;20457;-25
2021/09/17 10:40:54;;;;;;;3.20;2.90;;;13.60;75.80;;;;;;5041961;28;20444;-24
2021/09/17 10:43:36;;;;;;;3.63;3.33;;;13.50;77.00;;;;;;5042313;28;20490;-24
2021/09/17 10:46:36;;;;;;;3.70;3.40;;;13.50;74.30;;;;;;5033195;28;20453;-23
2021/09/17 10:49:08;;;;;;;4.00;3.70;;;13.50;71.00;;;;;;5042987;28;20463;-23
2021/09/17 10:51:40;;;;;;;6.40;4.03;;;13.40;71.90;;;;;;5042453;28;20492;-23
2021/09/17 10:54:12;;;;;;;4.00;3.70;;;13.40;71.90;;;;;;5042443;28;20468;-23
2021/09/17 10:57:11;;;;;;;4.60;4.20;;;13.30;74.30;;;;;;5042931;28;20445;-23
2021/09/17 10:59:47;;;;;;;4.60;4.17;;;13.30;72.60;;;;;;5046638;28;20485;-23
2021/09/17 11:02:20;;;;;;;6.63;4.60;;;13.20;72.30;;;;;;5041157;28;20484;-23
2021/09/17 11:05:17;;;;;;;4.40;4.00;;;13.20;74.30;;;;;;5045784;28;20477;-23
2021/09/17 11:07:48;;;;;;;7.47;4.50;;;13.20;74.10;;;;;;5044280;28;20531;-23
2021/09/17 11:10:29;;;;;;;5.47;4.37;;;13.10;72.30;;;;;;5045906;28;20515;-24
2021/09/17 11:13:10;;;;;;;13.03;5.30;;;13.10;71.80;;;;;;5045372;28;20477;-23
2021/09/17 11:15:42;;;;;;;6.00;4.83;;;13.10;71.80;;;;;;5045872;28;20475;-24
2021/09/17 11:18:20;;;;;;;6.23;5.13;;;13.10;74.20;;;;;;5045180;28;20460;-24
2021/09/17 11:20:51;;;;;;;4.80;4.30;;;13.10;74.70;;;;;;5045834;28;20468;-24
2021/09/17 11:23:37;;;;;;;5.40;4.90;;;13.10;75.10;;;;;;5045260;28;20481;-23
2021/09/17 11:26:10;;;;;;;11.23;5.63;;;13.10;77.50;;;;;;5042013;28;20515;-24
2021/09/17 11:28:41;;;;;;;6.93;4.87;;;13.10;78.50;;;;;;5044990;28;20453;-23
2021/09/17 11:31:14;;;;;;;7.13;6.47;;;13.00;79.30;;;;;;5043931;28;20453;-24
2021/09/17 11:33:57;;;;;;;5.80;5.20;;;12.90;81.30;;;;;;5045346;28;20529;-23
2021/09/17 11:36:42;;;;;;;6.07;5.60;;;12.80;81.90;;;;;;5045381;28;20449;-23
2021/09/17 11:39:20;;;;;;;5.47;4.37;;;12.80;81.10;;;;;;5045959;28;20450;-23
2021/09/17 11:41:55;;;;;;;6.13;4.87;;;12.70;79.40;;;;;;5045057;28;20542;-24
2021/09/17 11:44:38;;;;;;;5.63;4.90;;;12.70;79.90;;;;;;5045431;28;20489;-24
2021/09/17 11:47:11;;;;;;;6.00;5.50;;;12.80;78.50;;;;;;5044432;28;20469;-23
2021/09/17 11:49:44;;;;;;;7.57;5.33;;;12.80;80.30;;;;;;5045049;28;20449;-23
2021/09/17 11:52:17;;;;;;;7.50;5.87;;;12.80;80.30;;;;;;5044742;28;20477;-23
2021/09/17 11:54:58;;;;;;;7.13;5.40;;;12.80;82.60;;;;;;5045452;28;20477;-23
2021/09/17 11:57:32;;;;;;;7.40;5.50;;;12.80;82.60;;;;;;5044586;28;20457;-23
2021/09/17 12:00:08;;;;;;;6.10;5.50;;;12.80;85.00;;;;;;5045272;28;20458;-23
2021/09/17 12:02:39;;;;;;;7.63;6.10;;;12.80;87.30;;;;;;5044052;28;20610;-24
2021/09/17 12:05:18;;;;;;;6.20;5.60;;;12.70;86.60;;;;;;5044939;28;20470;-23
2021/09/17 12:07:50;;;;;;;6.93;6.23;;;12.70;86.50;;;;;;5043137;28;20472;-23
2021/09/17 12:10:27;;;;;;;6.50;5.90;;;12.60;81.10;;;;;;5043943;28;20445;-24
2021/09/17 12:13:02;;;;;;;6.40;5.67;;;12.60;85.40;;;;;;5044576;28;20441;-23
2021/09/17 12:15:36;;;;;;;6.60;5.33;;;12.70;86.50;;;;;;5044968;28;20793;-23
2021/09/17 12:18:08;;;;;;;6.47;5.50;;;12.60;87.70;;;;;;5043656;28;20454;-24
2021/09/17 12:20:46;;;;;;;6.60;6.00;;;12.60;86.10;;;;;;5044582;28;20759;-23
2021/09/17 12:23:19;;;;;;;6.57;5.97;;;12.60;86.30;;;;;;5042848;28;20511;-23
2021/09/17 12:25:51;;;;;;;6.23;5.53;;;12.60;88.40;;;;;;5043989;28;20576;-23
2021/09/17 12:28:24;;;;;;;6.17;5.63;;;12.60;89.20;;;;;;5035671;28;20449;-24
2021/09/17 12:30:55;;;;;;;7.63;6.47;;;12.60;88.70;;;;;;5043583;28;20449;-24
2021/09/17 12:33:29;;;;;;;6.67;6.07;;;12.50;89.90;;;;;;5044144;28;20453;-23
2021/09/17 12:36:10;;;;;;;7.13;6.23;;;12.50;90.50;;;;;;5043200;28;20468;-23
2021/09/17 12:38:41;;;;;;;7.30;6.50;;;12.40;91.50;;;;;;5044626;28;20453;-23
2021/09/17 12:41:13;;;;;;;8.37;5.90;;;12.40;92.40;;;;;;5044002;28;20449;-23
2021/09/17 12:44:09;;;;;;;7.10;6.40;;;12.40;92.40;;;;;;5042194;28;20593;-24
2021/09/17 12:46:44;;;;;;;7.00;6.37;;;12.40;92.70;;;;;;5043071;28;20472;-23
2021/09/17 12:49:18;;;;;;;7.53;6.43;;;12.30;91.90;;;;;;5042712;28;20883;-24
2021/09/17 12:51:59;;;;;;;6.90;6.20;;;12.40;91.60;;;;;;5043601;28;20480;-24
2021/09/17 12:54:40;;;;;;;8.30;7.30;;;12.40;90.40;;;;;;5043285;28;20813;-24
2021/09/17 12:57:17;;;;;;;8.50;7.70;;;12.40;90.10;;;;;;5028049;28;20555;-23
2021/09/17 13:00:02;;;;;;;7.97;6.53;;;12.50;91.50;;;;;;5033495;28;20488;-24
2021/09/17 13:02:33;;;;;;;7.40;6.80;;;12.50;93.00;;;;;;5042426;28;20492;-23
2021/09/17 13:05:09;;;;;;;7.23;6.40;;;12.60;93.40;;;;;;5043117;28;20553;-23
2021/09/17 13:07:42;;;;;;;9.47;6.50;;;12.60;93.90;;;;;;5042644;28;20796;-24
2021/09/17 13:10:14;;;;;;;7.83;6.40;;;12.70;93.00;;;;;;5043603;28;20517;-24
2021/09/17 13:12:45;;;;;;;8.17;6.43;;;12.70;93.50;;;;;;5043779;28;20461;-24
2021/09/17 13:15:16;;;;;;;7.83;6.90;;;12.70;92.30;;;;;;5043161;28;20449;-24
2021/09/17 13:17:47;;;;;;;7.87;6.87;;;12.80;92.90;;;;;;5042537;28;20457;-24